Time;durP1;ratioP1;P1;durP2;ratioP2;P2;SDS_P1;SDS_P2;PMS_P1;PMS_P2;Temp;Humidity;BMP_temperature;BMP_pressure;BME280_temperature;BME280_humidity;BME280_pressure;Samples;Min_cycle;Max_cycle;Signal;HPM_P1;HPM_P2
2022/09/26 04:02:00;;;;;;;1.48;1.42;;;9.40;99.90;;;;;;5272522;23;20262;-70
2022/09/26 04:04:27;;;;;;;1.70;1.70;;;9.40;99.90;;;;;;5005705;28;20569;-69
2022/09/26 04:06:53;;;;;;;1.33;1.30;;;9.40;99.90;;;;;;5007589;28;20211;-69
2022/09/26 04:09:20;;;;;;;1.73;1.63;;;9.40;99.90;;;;;;5009613;28;20223;-71
2022/09/26 04:11:47;;;;;;;2.80;1.95;;;9.40;99.90;;;;;;4997992;28;20976;-70
2022/09/26 04:14:14;;;;;;;1.70;1.58;;;9.40;99.90;;;;;;4992851;28;20213;-71
2022/09/26 04:19:19;;;;;;;2.83;2.50;;;9.50;99.90;;;;;;4990436;28;20245;-70
2022/09/26 04:21:46;;;;;;;1.27;1.27;;;9.50;99.90;;;;;;4992314;28;20209;-70
2022/09/26 04:24:14;;;;;;;1.25;1.15;;;9.50;99.90;;;;;;4990655;28;20575;-71
2022/09/26 04:26:43;;;;;;;2.13;1.95;;;9.60;99.90;;;;;;4980344;28;20199;-68
2022/09/26 04:29:10;;;;;;;3.80;1.95;;;9.60;99.90;;;;;;4972268;28;20318;-70
2022/09/26 04:31:38;;;;;;;1.63;1.52;;;9.60;99.90;;;;;;4971156;28;20212;-71
2022/09/26 04:34:05;;;;;;;2.40;2.20;;;9.60;99.90;;;;;;4971172;28;20215;-71
2022/09/26 04:36:33;;;;;;;3.05;1.90;;;9.60;99.90;;;;;;4972040;28;20342;-69
2022/09/26 04:39:00;;;;;;;2.55;1.92;;;9.60;99.90;;;;;;4972307;28;20234;-70
2022/09/26 04:41:28;;;;;;;5.65;1.33;;;9.70;99.90;;;;;;4972504;28;20212;-70
2022/09/26 04:43:56;;;;;;;1.60;1.60;;;9.70;99.90;;;;;;4970129;28;20211;-70
2022/09/26 04:46:24;;;;;;;0.93;0.93;;;9.70;99.90;;;;;;4968790;28;20688;-71
2022/09/26 04:48:53;;;;;;;3.35;1.85;;;9.70;99.90;;;;;;4971452;28;20601;-72
2022/09/26 04:51:21;;;;;;;1.42;1.42;;;9.70;99.90;;;;;;4967209;28;20202;-71
2022/09/26 04:53:50;;;;;;;8.10;1.85;;;9.80;99.90;;;;;;4961054;28;20657;-71
2022/09/26 04:56:18;;;;;;;5.78;1.42;;;9.70;99.90;;;;;;4969022;28;20239;-70
2022/09/26 04:58:46;;;;;;;2.00;1.90;;;9.80;99.90;;;;;;4968990;28;20224;-67
2022/09/26 05:01:14;;;;;;;1.08;0.82;;;9.80;99.90;;;;;;4960316;28;20561;-70
2022/09/26 05:03:41;;;;;;;1.85;1.38;;;9.80;99.90;;;;;;4961582;28;20221;-71
2022/09/26 05:06:09;;;;;;;1.50;1.40;;;9.80;99.90;;;;;;4966750;28;20220;-71
2022/09/26 05:08:36;;;;;;;2.55;1.85;;;9.80;99.90;;;;;;4966276;28;20557;-66
2022/09/26 05:11:05;;;;;;;0.90;0.90;;;9.80;99.90;;;;;;4962490;28;20252;-70
2022/09/26 05:13:32;;;;;;;1.90;1.70;;;9.80;99.90;;;;;;4971039;28;20222;-70
2022/09/26 05:16:00;;;;;;;1.55;1.50;;;9.80;99.90;;;;;;4965871;28;20238;-68
2022/09/26 05:18:27;;;;;;;1.30;1.20;;;9.80;99.90;;;;;;4971898;28;20238;-69
2022/09/26 05:20:55;;;;;;;1.83;1.70;;;9.80;99.90;;;;;;4962308;28;20216;-70
2022/09/26 05:26:19;;;;;;;1.75;1.52;;;9.80;99.90;;;;;;4949115;28;20218;-71
2022/09/26 05:28:47;;;;;;;1.75;1.65;;;9.80;99.90;;;;;;4963098;28;20252;-71
2022/09/26 05:31:14;;;;;;;1.67;1.67;;;9.80;99.90;;;;;;4969743;28;20219;-68
2022/09/26 05:33:41;;;;;;;0.93;0.93;;;9.80;99.90;;;;;;4964367;28;20274;-70
2022/09/26 05:36:08;;;;;;;6.47;1.55;;;9.90;99.90;;;;;;4970831;28;20244;-70
2022/09/26 05:38:35;;;;;;;2.45;2.35;;;9.90;99.90;;;;;;4965808;28;20259;-71
2022/09/26 05:41:01;;;;;;;2.03;1.92;;;10.00;99.90;;;;;;4963203;28;20213;-69
2022/09/26 05:43:32;;;;;;;2.70;2.50;;;10.00;99.90;;;;;;4964892;28;20211;-70
2022/09/26 05:45:59;;;;;;;1.30;1.30;;;10.00;99.90;;;;;;4964344;28;20474;-70
2022/09/26 05:48:28;;;;;;;1.35;1.35;;;10.10;99.90;;;;;;4968982;28;20227;-71
2022/09/26 05:50:55;;;;;;;2.45;1.20;;;10.10;99.90;;;;;;4968291;28;20780;-70
2022/09/26 05:53:23;;;;;;;1.50;1.40;;;10.10;99.90;;;;;;4970675;28;20555;-70
2022/09/26 05:55:51;;;;;;;0.95;0.93;;;10.20;99.90;;;;;;4964608;28;20228;-71
2022/09/26 05:58:18;;;;;;;5.68;1.95;;;10.20;99.90;;;;;;4971326;28;20229;-68
2022/09/26 06:00:48;;;;;;;1.80;1.70;;;10.30;99.90;;;;;;4965379;28;20691;-71
2022/09/26 06:03:15;;;;;;;1.20;1.20;;;10.30;99.90;;;;;;4970012;28;20377;-68
2022/09/26 06:05:42;;;;;;;3.10;2.90;;;10.40;99.90;;;;;;4966727;28;20262;-71
2022/09/26 06:08:10;;;;;;;1.80;1.70;;;10.40;99.90;;;;;;4960613;28;20233;-71
2022/09/26 06:10:39;;;;;;;1.13;1.13;;;10.50;99.90;;;;;;4969636;28;20222;-70
2022/09/26 06:13:06;;;;;;;0.77;0.77;;;10.40;99.90;;;;;;4970137;28;20211;-70
2022/09/26 06:15:33;;;;;;;1.77;1.67;;;10.50;99.90;;;;;;4963159;28;20261;-69
2022/09/26 06:18:04;;;;;;;2.83;2.58;;;10.50;99.90;;;;;;4969714;28;20579;-68
2022/09/26 06:20:32;;;;;;;1.38;1.27;;;10.50;99.90;;;;;;4969119;28;20273;-70
2022/09/26 06:22:59;;;;;;;8.77;2.47;;;10.60;99.90;;;;;;4971883;28;20207;-69
2022/09/26 06:25:26;;;;;;;1.02;1.02;;;10.60;99.90;;;;;;4967816;28;20636;-71
2022/09/26 06:27:55;;;;;;;5.60;2.00;;;10.60;99.90;;;;;;4965906;28;20254;-69
2022/09/26 06:30:22;;;;;;;2.08;1.90;;;10.70;99.90;;;;;;4964089;28;20223;-69
2022/09/26 06:32:51;;;;;;;1.88;1.77;;;10.80;99.90;;;;;;4963603;28;20637;-70
2022/09/26 06:35:20;;;;;;;2.10;2.00;;;10.90;99.90;;;;;;4962396;28;20593;-70
2022/09/26 06:37:47;;;;;;;1.95;1.83;;;10.90;99.90;;;;;;4963855;28;20729;-69
2022/09/26 06:40:14;;;;;;;2.25;1.80;;;11.00;99.90;;;;;;4969844;28;20533;-71
2022/09/26 06:42:42;;;;;;;1.13;1.13;;;11.00;99.90;;;;;;4962176;28;20840;-71
2022/09/26 06:45:10;;;;;;;1.40;1.25;;;11.00;99.90;;;;;;4963200;28;20278;-70
2022/09/26 06:47:37;;;;;;;1.88;1.88;;;11.00;99.90;;;;;;4970154;28;20313;-69
2022/09/26 06:50:05;;;;;;;1.20;1.20;;;11.00;99.90;;;;;;4969985;28;20217;-70
2022/09/26 06:52:34;;;;;;;1.38;1.38;;;11.00;99.90;;;;;;4968787;28;20586;-69
2022/09/26 06:55:02;;;;;;;1.58;1.52;;;11.00;99.90;;;;;;4969382;28;20214;-69
2022/09/26 06:57:29;;;;;;;1.50;1.40;;;11.00;99.90;;;;;;4968431;28;20237;-69
2022/09/26 06:59:56;;;;;;;1.73;1.73;;;11.10;99.90;;;;;;4969385;28;20953;-70
2022/09/26 07:02:25;;;;;;;2.55;1.67;;;11.10;99.90;;;;;;4969894;28;20583;-70
2022/09/26 07:04:52;;;;;;;2.15;1.88;;;11.20;99.90;;;;;;4966566;28;20239;-69
2022/09/26 07:07:19;;;;;;;1.77;1.10;;;11.20;99.90;;;;;;4969634;28;20230;-71
2022/09/26 07:09:47;;;;;;;1.25;1.20;;;11.20;99.90;;;;;;4968686;28;20213;-68
2022/09/26 07:12:14;;;;;;;4.88;3.22;;;11.20;99.90;;;;;;4968512;28;20674;-69
2022/09/26 07:14:41;;;;;;;1.25;1.25;;;11.20;99.90;;;;;;4966182;28;20586;-69
2022/09/26 07:17:10;;;;;;;3.33;2.72;;;11.20;99.90;;;;;;4965940;28;20670;-70
2022/09/26 07:19:37;;;;;;;2.03;1.65;;;11.20;99.90;;;;;;4968803;28;20549;-71
2022/09/26 07:22:08;;;;;;;1.75;1.65;;;11.20;99.90;;;;;;4969025;28;20207;-70
2022/09/26 07:24:35;;;;;;;3.05;2.30;;;11.20;99.90;;;;;;4969763;28;20222;-70
2022/09/26 07:27:03;;;;;;;1.70;1.70;;;11.30;99.90;;;;;;4968418;28;20202;-68
2022/09/26 07:29:31;;;;;;;2.30;2.20;;;11.30;99.90;;;;;;4966503;28;20211;-69
2022/09/26 07:31:58;;;;;;;1.95;1.25;;;11.30;99.90;;;;;;4968077;28;20725;-71
2022/09/26 07:34:26;;;;;;;1.80;1.70;;;11.40;99.90;;;;;;4970051;28;20221;-71
2022/09/26 07:36:53;;;;;;;3.13;2.83;;;11.40;99.90;;;;;;4968124;28;20228;-68
2022/09/26 07:39:20;;;;;;;2.03;1.92;;;11.50;99.90;;;;;;4970323;28;20274;-69
2022/09/26 07:41:47;;;;;;;2.10;2.00;;;11.50;99.90;;;;;;4960233;28;20754;-69
2022/09/26 07:44:15;;;;;;;3.17;2.97;;;11.50;99.90;;;;;;4967814;28;20306;-65
2022/09/26 07:52:11;;;;;;;2.38;2.28;;;11.50;99.90;;;;;;4961994;28;20338;-68
2022/09/26 07:54:38;;;;;;;3.20;3.00;;;11.50;99.90;;;;;;4972395;28;20211;-69
2022/09/26 07:57:05;;;;;;;2.22;2.03;;;11.50;99.90;;;;;;4968670;28;20369;-68
2022/09/26 07:59:34;;;;;;;5.35;2.97;;;11.60;99.90;;;;;;4971000;28;20234;-69
2022/09/26 08:02:01;;;;;;;2.70;2.50;;;11.70;99.90;;;;;;4969763;28;20210;-68
2022/09/26 08:04:28;;;;;;;2.67;1.95;;;11.70;99.90;;;;;;4972649;28;20347;-69
2022/09/26 08:06:56;;;;;;;3.75;3.53;;;11.80;99.90;;;;;;4972193;28;20218;-68
2022/09/26 08:09:23;;;;;;;3.90;2.45;;;11.80;99.90;;;;;;4964754;28;20683;-68
2022/09/26 08:11:50;;;;;;;3.35;3.05;;;11.80;99.90;;;;;;4970767;28;20214;-68
2022/09/26 08:14:16;;;;;;;3.28;3.03;;;11.80;99.90;;;;;;4971785;28;20683;-68
2022/09/26 08:16:44;;;;;;;2.60;2.40;;;11.90;99.90;;;;;;4972629;28;20344;-69
2022/09/26 08:19:16;;;;;;;3.85;3.33;;;11.90;99.90;;;;;;4964780;28;20240;-69
2022/09/26 08:21:44;;;;;;;2.88;2.78;;;11.90;99.90;;;;;;4974511;28;20209;-69
2022/09/26 08:24:11;;;;;;;2.20;2.10;;;12.00;99.90;;;;;;4968703;28;20240;-69
2022/09/26 08:26:39;;;;;;;2.33;2.15;;;12.10;99.90;;;;;;4969483;28;20970;-68
2022/09/26 08:29:09;;;;;;;2.07;1.93;;;12.20;99.90;;;;;;4971444;28;20607;-68
2022/09/26 08:31:37;;;;;;;4.63;2.17;;;12.30;99.90;;;;;;4973709;28;20466;-70
2022/09/26 08:34:05;;;;;;;3.20;2.23;;;12.40;99.90;;;;;;4971689;28;21013;-68
2022/09/26 08:36:32;;;;;;;5.00;2.30;;;12.60;99.90;;;;;;4965794;28;20500;-68
2022/09/26 08:38:59;;;;;;;2.30;2.10;;;12.60;99.90;;;;;;4954863;28;20940;-69
2022/09/26 08:41:39;;;;;;;2.93;2.43;;;12.60;99.90;;;;;;4954443;29;20466;-69
2022/09/26 08:44:21;;;;;;;2.60;2.47;;;12.70;99.90;;;;;;4962042;28;20486;-70
2022/09/26 08:46:58;;;;;;;4.73;1.97;;;12.80;99.90;;;;;;4966029;28;20461;-70
2022/09/26 08:49:40;;;;;;;2.53;2.43;;;12.90;99.90;;;;;;4973535;28;20807;-70
2022/09/26 08:52:20;;;;;;;2.00;1.90;;;13.00;99.90;;;;;;4973808;28;20485;-70
2022/09/26 08:54:47;;;;;;;1.97;1.80;;;13.10;99.90;;;;;;4972022;28;20492;-70
2022/09/26 08:57:27;;;;;;;1.63;1.60;;;13.20;99.90;;;;;;4964759;28;20501;-71
2022/09/26 08:59:54;;;;;;;2.33;2.10;;;13.30;99.90;;;;;;4967059;28;20470;-70
2022/09/26 09:02:29;;;;;;;2.10;2.00;;;13.30;99.90;;;;;;4970831;28;20466;-70
2022/09/26 09:05:00;;;;;;;2.00;1.73;;;13.30;99.90;;;;;;4973127;28;20488;-70
2022/09/26 09:07:30;;;;;;;1.43;1.20;;;13.30;99.90;;;;;;4971334;28;20483;-70
2022/09/26 09:10:01;;;;;;;1.30;1.30;;;13.40;99.90;;;;;;4971105;28;20473;-71
2022/09/26 09:12:39;;;;;;;2.40;2.20;;;13.50;99.90;;;;;;4966278;28;20479;-70
2022/09/26 09:15:19;;;;;;;1.83;1.60;;;13.50;99.90;;;;;;4971057;28;20463;-70
2022/09/26 09:17:53;;;;;;;2.17;2.07;;;13.60;99.90;;;;;;4965721;28;20486;-70
2022/09/26 09:20:35;;;;;;;1.53;1.53;;;13.60;99.90;;;;;;4971683;28;20484;-70
2022/09/26 09:23:24;;;;;;;1.80;1.70;;;13.60;99.90;;;;;;4972422;28;20466;-70
2022/09/26 09:26:04;;;;;;;10.03;2.30;;;13.70;99.90;;;;;;4967616;28;20465;-69
2022/09/26 09:28:40;;;;;;;1.97;1.83;;;13.70;99.90;;;;;;4958840;28;20486;-69
2022/09/26 09:31:11;;;;;;;2.57;2.47;;;13.70;99.90;;;;;;4964067;28;20936;-69
2022/09/26 09:33:41;;;;;;;1.33;1.33;;;13.70;99.90;;;;;;4963180;28;20470;-69
2022/09/26 09:36:12;;;;;;;1.60;1.60;;;13.80;99.90;;;;;;4968165;28;20904;-70
2022/09/26 09:38:42;;;;;;;1.90;1.80;;;13.90;99.90;;;;;;4970330;28;20934;-69
2022/09/26 09:41:13;;;;;;;2.73;1.60;;;13.90;99.90;;;;;;4970500;28;20486;-68
2022/09/26 09:43:44;;;;;;;4.83;1.90;;;14.00;99.90;;;;;;4965777;28;20508;-69
2022/09/26 09:46:16;;;;;;;3.83;1.53;;;14.20;99.90;;;;;;4969010;28;20987;-69
2022/09/26 09:48:46;;;;;;;1.73;1.73;;;14.40;99.90;;;;;;4963885;28;20494;-71
2022/09/26 09:51:25;;;;;;;2.07;1.97;;;14.50;99.90;;;;;;4963864;28;20469;-71
2022/09/26 09:54:08;;;;;;;1.70;1.70;;;14.70;99.90;;;;;;4963174;28;20480;-70
2022/09/26 09:56:44;;;;;;;1.50;1.40;;;14.80;99.90;;;;;;4972545;28;20491;-69
2022/09/26 09:59:29;;;;;;;1.07;1.07;;;14.90;99.90;;;;;;4967212;28;20496;-69
2022/09/26 10:02:11;;;;;;;3.03;1.43;;;15.00;99.90;;;;;;4970119;28;20558;-69
2022/09/26 10:04:45;;;;;;;3.03;1.10;;;15.10;99.90;;;;;;4969857;28;21141;-70
2022/09/26 10:07:13;;;;;;;1.37;1.27;;;15.10;99.90;;;;;;4970960;28;20487;-70
2022/09/26 10:09:42;;;;;;;1.20;1.20;;;15.20;99.90;;;;;;4964746;28;20469;-71
2022/09/26 10:12:15;;;;;;;1.27;1.27;;;15.20;99.90;;;;;;4970844;28;20969;-71
2022/09/26 10:14:47;;;;;;;1.37;1.37;;;15.30;99.90;;;;;;4968922;28;20796;-69
2022/09/26 10:17:22;;;;;;;2.13;1.87;;;15.40;99.90;;;;;;4969475;28;20504;-68
2022/09/26 10:19:49;;;;;;;1.03;1.03;;;15.30;99.90;;;;;;4989620;23;20511;-71
2022/09/26 10:22:24;;;;;;;1.40;1.40;;;15.20;99.90;;;;;;4964505;28;21036;-71
2022/09/26 10:24:53;;;;;;;1.57;1.47;;;15.20;99.90;;;;;;4973192;28;20496;-70
2022/09/26 10:27:33;;;;;;;0.93;0.93;;;15.20;99.90;;;;;;4970189;28;20810;-70
2022/09/26 10:30:02;;;;;;;0.93;0.93;;;15.40;99.90;;;;;;4967525;28;20495;-69
2022/09/26 10:32:29;;;;;;;1.13;1.13;;;15.40;99.90;;;;;;4958099;28;20481;-69
2022/09/26 10:35:06;;;;;;;1.10;1.10;;;15.40;99.90;;;;;;4959057;28;20464;-69
2022/09/26 10:37:36;;;;;;;1.80;1.30;;;15.40;99.90;;;;;;4961859;28;21038;-70
2022/09/26 10:43:29;;;;;;;1.07;1.07;;;15.70;99.90;;;;;;4946721;28;20541;-71
2022/09/26 10:46:02;;;;;;;0.67;0.67;;;15.70;99.90;;;;;;4965481;28;20504;-70
2022/09/26 10:48:41;;;;;;;0.83;0.83;;;15.60;99.90;;;;;;4961677;28;20466;-70
2022/09/26 10:51:09;;;;;;;1.33;1.30;;;15.50;99.90;;;;;;4971347;28;20471;-71
2022/09/26 10:53:40;;;;;;;1.10;1.10;;;15.50;99.90;;;;;;4956093;28;20479;-70
2022/09/26 10:56:10;;;;;;;1.17;1.17;;;15.50;99.90;;;;;;4952230;28;20478;-70
2022/09/26 10:58:41;;;;;;;0.60;0.60;;;15.50;99.90;;;;;;4953925;28;20512;-69
2022/09/26 11:01:19;;;;;;;0.63;0.63;;;15.50;99.90;;;;;;4959656;28;20783;-70
2022/09/26 11:03:47;;;;;;;4.07;0.97;;;15.30;99.90;;;;;;4963630;28;20465;-69
2022/09/26 11:06:23;;;;;;;0.80;0.80;;;15.30;99.90;;;;;;4963102;28;20923;-68
2022/09/26 11:08:55;;;;;;;1.23;1.10;;;15.20;99.90;;;;;;4955182;28;20461;-69
2022/09/26 11:11:22;;;;;;;1.13;0.93;;;15.30;99.90;;;;;;4965745;28;20533;-70
2022/09/26 11:14:02;;;;;;;0.90;0.90;;;15.30;99.90;;;;;;4971909;28;20479;-69
2022/09/26 11:16:29;;;;;;;1.50;1.40;;;15.40;99.90;;;;;;4967173;28;20527;-69
2022/09/26 11:19:04;;;;;;;0.73;0.73;;;15.40;99.90;;;;;;4954594;28;20494;-70
2022/09/26 11:21:40;;;;;;;0.90;0.90;;;15.60;99.90;;;;;;4967277;28;20469;-69
2022/09/26 11:24:16;;;;;;;0.57;0.57;;;15.60;99.90;;;;;;4973086;28;20538;-70
2022/09/26 11:26:54;;;;;;;2.53;2.43;;;15.70;99.90;;;;;;4966311;28;20918;-69
2022/09/26 11:29:33;;;;;;;1.50;1.23;;;15.70;99.90;;;;;;4961490;28;20950;-70
2022/09/26 11:32:01;;;;;;;3.80;1.33;;;15.60;99.90;;;;;;4972061;28;20552;-70
2022/09/26 11:34:30;;;;;;;1.10;1.10;;;15.60;99.90;;;;;;4969021;28;20478;-71
2022/09/26 11:37:12;;;;;;;0.73;0.73;;;15.50;99.90;;;;;;4966562;28;20827;-70
2022/09/26 11:39:57;;;;;;;0.70;0.70;;;15.50;99.90;;;;;;4968126;28;20508;-71
2022/09/26 11:42:35;;;;;;;0.63;0.63;;;15.40;99.90;;;;;;4964441;28;20484;-69
2022/09/26 11:45:09;;;;;;;1.40;1.27;;;15.30;99.90;;;;;;4967218;28;20551;-70
2022/09/26 11:48:24;;;;;;;7.30;1.30;;;15.30;99.90;;;;;;4969327;28;20858;-69
2022/09/26 11:50:59;;;;;;;1.10;1.10;;;15.40;99.90;;;;;;4944038;28;20500;-69
2022/09/26 11:53:41;;;;;;;1.47;1.37;;;15.50;99.90;;;;;;4969239;28;20477;-69
2022/09/26 11:56:28;;;;;;;1.73;1.47;;;15.50;99.90;;;;;;4962430;28;20496;-69
2022/09/26 11:59:05;;;;;;;0.70;0.70;;;15.50;99.90;;;;;;4959021;28;20545;-69
2022/09/26 12:01:42;;;;;;;1.10;0.97;;;15.40;99.90;;;;;;4963240;28;20997;-70
2022/09/26 12:04:29;;;;;;;1.20;1.20;;;15.40;99.90;;;;;;4971401;28;20500;-68
2022/09/26 12:07:06;;;;;;;0.70;0.70;;;15.40;99.90;;;;;;4958210;28;20543;-70
2022/09/26 12:09:53;;;;;;;0.63;0.63;;;15.40;99.90;;;;;;4972023;28;20496;-70
2022/09/26 12:12:31;;;;;;;1.50;1.40;;;15.50;99.90;;;;;;4961053;28;20464;-67
2022/09/26 12:15:13;;;;;;;1.43;1.43;;;15.50;99.90;;;;;;4967672;28;20486;-70
2022/09/26 12:17:49;;;;;;;1.40;1.30;;;15.50;99.90;;;;;;4962274;28;20477;-69
2022/09/26 12:20:28;;;;;;;0.90;0.90;;;15.50;99.90;;;;;;4965296;28;20871;-69
2022/09/26 12:23:01;;;;;;;1.17;1.10;;;15.50;99.90;;;;;;4981326;28;20465;-68
2022/09/26 12:25:40;;;;;;;0.77;0.77;;;15.40;99.90;;;;;;4978367;28;20459;-69
2022/09/26 12:28:25;;;;;;;2.40;0.70;;;15.40;99.90;;;;;;4968965;28;20831;-69
2022/09/26 12:31:01;;;;;;;0.70;0.70;;;15.50;99.90;;;;;;4953969;28;20494;-71
2022/09/26 12:33:51;;;;;;;0.93;0.93;;;15.60;99.90;;;;;;4955517;28;20483;-70
2022/09/26 12:36:26;;;;;;;0.67;0.67;;;15.70;99.90;;;;;;4980510;28;20473;-69
2022/09/26 12:39:06;;;;;;;0.70;0.70;;;15.80;99.90;;;;;;4965012;28;20518;-69
2022/09/26 12:41:51;;;;;;;0.60;0.60;;;15.80;99.90;;;;;;4971200;28;20467;-70
2022/09/26 12:44:31;;;;;;;1.07;0.70;;;15.60;99.90;;;;;;4961830;28;20461;-69
2022/09/26 12:47:49;;;;;;;1.33;0.80;;;15.40;99.90;;;;;;4966021;28;20869;-70
2022/09/26 12:50:29;;;;;;;1.67;1.57;;;15.20;99.90;;;;;;4904009;29;20518;-70
2022/09/26 12:53:18;;;;;;;0.80;0.80;;;14.90;99.90;;;;;;4911333;29;20485;-68
2022/09/26 12:55:55;;;;;;;0.70;0.70;;;14.70;99.90;;;;;;4947170;28;20546;-69
2022/09/26 12:58:35;;;;;;;1.20;1.10;;;14.50;99.90;;;;;;4963231;28;20502;-69
2022/09/26 13:01:14;;;;;;;1.43;1.43;;;14.40;99.90;;;;;;4964896;28;20498;-69
2022/09/26 13:03:59;;;;;;;0.63;0.63;;;14.40;99.90;;;;;;4968107;28;20488;-69
2022/09/26 13:06:43;;;;;;;0.60;0.60;;;14.30;99.90;;;;;;4960849;28;20467;-71
2022/09/26 13:09:32;;;;;;;0.90;0.90;;;14.40;99.90;;;;;;4960935;28;20470;-71
2022/09/26 13:12:09;;;;;;;0.87;0.87;;;14.40;99.90;;;;;;4970958;28;20228;-71
2022/09/26 13:14:59;;;;;;;1.03;1.03;;;14.40;99.90;;;;;;4963181;28;20469;-70
2022/09/26 13:17:34;;;;;;;0.90;0.90;;;14.30;99.90;;;;;;4972842;28;20540;-71
2022/09/26 13:20:05;;;;;;;1.73;1.73;;;14.30;99.90;;;;;;4971743;28;21003;-72
2022/09/26 13:22:39;;;;;;;0.90;0.90;;;14.20;99.90;;;;;;4967709;28;20499;-72
2022/09/26 13:25:17;;;;;;;1.13;1.13;;;14.00;99.90;;;;;;4966190;28;20474;-71
2022/09/26 13:27:51;;;;;;;2.10;2.00;;;13.90;99.90;;;;;;4973583;28;20573;-71
2022/09/26 13:30:22;;;;;;;1.07;1.07;;;13.80;99.90;;;;;;4972838;28;20486;-70
2022/09/26 13:33:01;;;;;;;1.60;1.27;;;13.70;99.90;;;;;;4972453;28;20472;-71
2022/09/26 13:35:30;;;;;;;6.53;1.33;;;13.70;99.90;;;;;;4967089;28;20469;-70
2022/09/26 13:38:15;;;;;;;2.10;0.90;;;13.70;99.90;;;;;;4971186;28;20570;-70
2022/09/26 13:40:50;;;;;;;1.23;1.10;;;13.70;99.90;;;;;;4976539;28;20938;-71
2022/09/26 13:43:47;;;;;;;1.57;1.57;;;13.70;99.90;;;;;;4962642;28;20505;-71
2022/09/26 13:46:25;;;;;;;1.13;1.07;;;13.60;99.90;;;;;;4968853;28;20473;-70
2022/09/26 13:49:02;;;;;;;1.00;1.00;;;13.60;99.90;;;;;;4967817;28;20476;-71
2022/09/26 13:51:37;;;;;;;0.80;0.80;;;13.60;99.90;;;;;;4979752;28;20474;-72
2022/09/26 13:54:15;;;;;;;1.40;1.40;;;13.60;99.90;;;;;;4970128;28;20492;-72
2022/09/26 13:56:53;;;;;;;0.83;0.83;;;13.60;99.90;;;;;;4981427;28;20528;-72
2022/09/26 13:59:26;;;;;;;4.93;1.10;;;13.60;99.90;;;;;;4984384;28;20584;-71
2022/09/26 14:02:18;;;;;;;1.33;1.20;;;13.60;99.90;;;;;;4975790;28;20538;-73
2022/09/26 14:04:48;;;;;;;1.47;1.47;;;13.60;99.90;;;;;;4955850;28;20477;-73
2022/09/26 14:10:18;;;;;;;0.47;0.47;;;13.50;99.90;;;;;;4967452;28;20856;-71
2022/09/26 14:13:07;;;;;;;1.27;1.27;;;13.50;99.90;;;;;;4960636;28;20460;-71
2022/09/26 14:15:55;;;;;;;0.60;0.60;;;13.40;99.90;;;;;;4968965;28;20490;-72
2022/09/26 14:18:30;;;;;;;1.30;1.30;;;13.30;99.90;;;;;;4957369;28;21064;-71
2022/09/26 14:21:27;;;;;;;0.87;0.87;;;13.30;99.90;;;;;;4958890;28;20604;-71
2022/09/26 14:24:27;;;;;;;2.10;1.03;;;13.20;99.90;;;;;;4947594;28;20989;-70
2022/09/26 14:27:03;;;;;;;0.93;0.93;;;13.20;99.90;;;;;;4964530;28;20845;-71
2022/09/26 14:29:35;;;;;;;1.33;1.23;;;13.10;99.90;;;;;;4964732;28;20844;-71
2022/09/26 14:32:05;;;;;;;0.77;0.77;;;13.10;99.90;;;;;;4960974;28;20466;-70
2022/09/26 14:34:38;;;;;;;4.57;1.37;;;13.00;99.90;;;;;;4966350;28;20619;-70
2022/09/26 14:37:32;;;;;;;1.40;1.30;;;13.00;99.90;;;;;;4952185;28;20477;-69
2022/09/26 14:40:24;;;;;;;1.17;1.17;;;12.90;99.90;;;;;;4958833;28;20499;-70
2022/09/26 14:42:54;;;;;;;1.00;1.00;;;12.90;99.90;;;;;;4953861;28;20318;-71
2022/09/26 14:45:25;;;;;;;1.30;1.20;;;12.90;99.90;;;;;;4959497;28;20584;-69
2022/09/26 14:48:07;;;;;;;1.20;1.02;;;12.90;99.90;;;;;;4962694;28;20581;-71
2022/09/26 14:50:43;;;;;;;1.13;1.13;;;12.90;99.90;;;;;;4965892;28;20341;-70
2022/09/26 14:53:20;;;;;;;0.90;0.90;;;12.80;99.90;;;;;;4967148;28;20951;-70
2022/09/26 14:55:58;;;;;;;1.00;0.97;;;12.90;99.90;;;;;;4960376;28;20579;-69
2022/09/26 14:58:47;;;;;;;0.85;0.80;;;12.80;99.90;;;;;;4976459;28;20484;-71
2022/09/26 15:01:19;;;;;;;1.15;1.10;;;12.80;99.90;;;;;;4963583;28;20233;-71
2022/09/26 15:04:00;;;;;;;1.48;1.38;;;12.70;99.90;;;;;;4961762;28;20640;-70
2022/09/26 15:06:28;;;;;;;1.95;1.75;;;12.70;99.90;;;;;;4970411;28;20256;-71
2022/09/26 15:08:59;;;;;;;1.48;1.38;;;12.60;99.90;;;;;;4966846;28;20301;-71
2022/09/26 15:11:33;;;;;;;1.50;1.50;;;12.60;99.90;;;;;;4969368;28;20218;-70
2022/09/26 15:14:12;;;;;;;1.00;1.00;;;12.50;99.90;;;;;;4962474;28;20220;-70
2022/09/26 15:16:46;;;;;;;1.90;1.40;;;12.50;99.90;;;;;;4990354;28;20220;-71
2022/09/26 15:19:18;;;;;;;1.40;0.90;;;12.50;99.90;;;;;;4990928;28;20608;-71
2022/09/26 15:21:50;;;;;;;1.40;1.40;;;12.40;99.90;;;;;;4961295;28;20216;-69
2022/09/26 15:24:27;;;;;;;1.80;1.80;;;12.40;99.90;;;;;;4952479;28;20647;-70
2022/09/26 15:26:57;;;;;;;1.15;1.15;;;12.40;99.90;;;;;;4966937;28;20617;-69
2022/09/26 15:29:24;;;;;;;1.42;1.42;;;12.40;99.90;;;;;;4958500;28;20255;-70
2022/09/26 15:31:51;;;;;;;2.55;1.58;;;12.30;99.90;;;;;;4952508;28;20213;-71
2022/09/26 15:34:22;;;;;;;1.25;1.25;;;12.30;99.90;;;;;;4964001;28;20202;-70
2022/09/26 15:36:53;;;;;;;1.30;1.20;;;12.30;99.90;;;;;;4962392;28;20217;-70
2022/09/26 15:39:37;;;;;;;1.35;1.35;;;12.30;99.90;;;;;;4964937;28;20230;-76
2022/09/26 15:45:22;;;;;;;3.90;1.23;;;12.20;99.90;;;;;;4974068;28;20216;-70
2022/09/26 15:47:49;;;;;;;1.50;1.40;;;12.30;99.90;;;;;;4956830;28;20211;-72
2022/09/26 15:50:19;;;;;;;1.08;1.08;;;12.30;99.90;;;;;;4957669;28;20228;-71
2022/09/26 15:52:49;;;;;;;0.90;0.90;;;12.30;99.90;;;;;;4958690;28;20582;-70
2022/09/26 15:55:19;;;;;;;1.00;1.00;;;12.30;99.90;;;;;;4958856;28;20215;-71
2022/09/26 15:57:48;;;;;;;1.48;1.48;;;12.20;99.90;;;;;;4961657;28;20217;-71
2022/09/26 16:00:16;;;;;;;1.80;1.80;;;12.20;99.90;;;;;;4984517;28;20243;-71
2022/09/26 16:02:43;;;;;;;1.60;1.50;;;12.20;99.90;;;;;;4985728;28;20201;-71
2022/09/26 16:05:11;;;;;;;1.77;1.67;;;12.20;99.90;;;;;;4955171;28;20301;-74
2022/09/26 16:07:40;;;;;;;2.47;2.17;;;12.20;99.90;;;;;;4968679;28;20222;-71
2022/09/26 16:10:21;;;;;;;1.50;1.33;;;12.10;99.90;;;;;;4959843;28;20603;-72
2022/09/26 16:12:48;;;;;;;1.30;1.30;;;12.10;99.90;;;;;;4968771;28;20209;-72
2022/09/26 16:15:18;;;;;;;1.67;1.60;;;12.10;99.90;;;;;;4973730;28;20216;-72
2022/09/26 16:17:51;;;;;;;1.58;1.00;;;12.10;99.90;;;;;;4970725;28;20769;-73
2022/09/26 16:20:28;;;;;;;2.05;1.30;;;12.10;99.90;;;;;;4973236;28;20243;-72
2022/09/26 16:22:55;;;;;;;1.92;1.80;;;12.20;99.90;;;;;;4970828;28;20207;-72
2022/09/26 16:25:30;;;;;;;1.83;1.73;;;12.20;99.90;;;;;;4973026;28;20211;-72
2022/09/26 16:28:19;;;;;;;2.47;2.05;;;12.20;99.90;;;;;;5014377;23;20236;-69
2022/09/26 16:30:59;;;;;;;2.20;2.15;;;12.20;99.90;;;;;;4996006;28;20225;-70
2022/09/26 16:33:29;;;;;;;1.13;1.13;;;12.20;99.90;;;;;;4986820;28;20204;-69
2022/09/26 16:36:01;;;;;;;1.25;1.25;;;12.20;99.90;;;;;;4992337;28;20220;-71
2022/09/26 16:38:31;;;;;;;1.77;1.67;;;12.20;99.90;;;;;;4968749;28;20823;-68
2022/09/26 16:41:06;;;;;;;1.10;1.10;;;12.30;99.90;;;;;;4976496;28;20226;-70
2022/09/26 16:43:34;;;;;;;1.55;1.45;;;12.20;99.90;;;;;;4981218;28;20210;-69
2022/09/26 16:46:06;;;;;;;1.23;1.23;;;12.30;99.90;;;;;;4974233;28;20204;-70
2022/09/26 16:48:35;;;;;;;1.55;1.45;;;12.20;99.90;;;;;;4977149;28;20396;-70
2022/09/26 16:51:14;;;;;;;0.90;0.90;;;12.20;99.90;;;;;;4975333;28;20357;-70
2022/09/26 16:53:44;;;;;;;2.40;2.20;;;12.20;99.90;;;;;;4964326;28;20209;-69
2022/09/26 16:56:14;;;;;;;5.25;2.30;;;12.30;99.90;;;;;;4967711;28;20210;-68
2022/09/26 16:58:48;;;;;;;1.20;1.20;;;12.20;99.90;;;;;;4972246;28;20506;-69
2022/09/26 17:03:59;;;;;;;0.77;0.77;;;12.20;99.90;;;;;;4965791;28;20260;-70
2022/09/26 17:06:26;;;;;;;1.60;1.50;;;12.20;99.90;;;;;;4988732;28;20225;-70
2022/09/26 17:08:53;;;;;;;3.90;1.58;;;12.20;99.90;;;;;;4975769;28;20215;-69
2022/09/26 17:11:27;;;;;;;0.80;0.80;;;12.20;99.90;;;;;;4981509;28;20213;-69
2022/09/26 17:13:54;;;;;;;1.70;1.65;;;12.20;99.90;;;;;;4972411;28;20311;-69
2022/09/26 17:16:21;;;;;;;1.65;1.65;;;12.20;99.90;;;;;;4983931;28;20233;-70
2022/09/26 17:18:48;;;;;;;2.67;2.00;;;12.20;99.90;;;;;;4967181;28;20216;-70
2022/09/26 17:21:15;;;;;;;1.30;1.30;;;12.20;99.90;;;;;;4979252;28;20629;-69
2022/09/26 17:23:41;;;;;;;1.75;1.30;;;12.20;99.90;;;;;;4969519;28;20615;-69
2022/09/26 17:26:16;;;;;;;2.15;2.13;;;12.20;99.90;;;;;;4978909;28;20595;-70
2022/09/26 17:28:45;;;;;;;0.95;0.95;;;12.30;99.90;;;;;;4970680;28;20228;-73
2022/09/26 17:31:18;;;;;;;0.73;0.73;;;12.30;99.90;;;;;;4969455;28;20210;-69
2022/09/26 17:33:46;;;;;;;1.08;1.08;;;12.30;99.90;;;;;;4972250;28;20262;-71
2022/09/26 17:36:19;;;;;;;1.20;1.20;;;12.30;99.90;;;;;;4970228;28;20217;-73
2022/09/26 17:38:46;;;;;;;0.80;0.80;;;12.30;99.90;;;;;;4961660;28;20232;-72
2022/09/26 17:41:12;;;;;;;0.93;0.93;;;12.30;99.90;;;;;;4972710;28;20222;-67